sensor_id;sensor_type;location;lat;lon;timestamp;P1;durP1;ratioP1;P2;durP2;ratioP2
63975;SDS011;50167;47.958;21.780;2023-07-29T00:01:35;8.68;;;3.92;;
63975;SDS011;50167;47.958;21.780;2023-07-29T00:04:01;4.45;;;3.75;;
63975;SDS011;50167;47.958;21.780;2023-07-29T00:06:28;7.62;;;4.03;;
63975;SDS011;50167;47.958;21.780;2023-07-29T00:08:56;4.80;;;3.72;;
63975;SDS011;50167;47.958;21.780;2023-07-29T00:11:24;5.50;;;3.58;;
63975;SDS011;50167;47.958;21.780;2023-07-29T00:13:50;8.18;;;3.72;;
63975;SDS011;50167;47.958;21.780;2023-07-29T00:16:17;6.70;;;4.37;;
63975;SDS011;50167;47.958;21.780;2023-07-29T00:18:46;13.45;;;4.40;;
63975;SDS011;50167;47.958;21.780;2023-07-29T00:21:12;4.35;;;3.95;;
63975;SDS011;50167;47.958;21.780;2023-07-29T00:23:38;6.33;;;3.75;;
63975;SDS011;50167;47.958;21.780;2023-07-29T00:26:05;6.05;;;3.60;;
63975;SDS011;50167;47.958;21.780;2023-07-29T00:28:31;10.03;;;4.78;;
63975;SDS011;50167;47.958;21.780;2023-07-29T00:31:07;5.67;;;3.87;;
63975;SDS011;50167;47.958;21.780;2023-07-29T00:33:33;8.20;;;3.90;;
63975;SDS011;50167;47.958;21.780;2023-07-29T00:35:59;7.80;;;4.30;;
63975;SDS011;50167;47.958;21.780;2023-07-29T00:38:28;7.87;;;3.98;;
63975;SDS011;50167;47.958;21.780;2023-07-29T00:40:59;8.85;;;5.25;;
63975;SDS011;50167;47.958;21.780;2023-07-29T00:43:24;4.83;;;4.30;;
63975;SDS011;50167;47.958;21.780;2023-07-29T00:45:50;5.17;;;3.85;;
63975;SDS011;50167;47.958;21.780;2023-07-29T00:48:17;8.33;;;3.12;;
63975;SDS011;50167;47.958;21.780;2023-07-29T00:50:44;6.97;;;4.03;;
63975;SDS011;50167;47.958;21.780;2023-07-29T00:53:10;14.78;;;4.50;;
63975;SDS011;50167;47.958;21.780;2023-07-29T00:55:37;4.72;;;3.80;;
63975;SDS011;50167;47.958;21.780;2023-07-29T00:58:03;7.40;;;4.37;;
63975;SDS011;50167;47.958;21.780;2023-07-29T01:00:30;5.92;;;3.85;;
63975;SDS011;50167;47.958;21.780;2023-07-29T01:02:56;5.28;;;4.45;;
63975;SDS011;50167;47.958;21.780;2023-07-29T01:05:22;3.92;;;3.30;;
63975;SDS011;50167;47.958;21.780;2023-07-29T01:13:25;8.20;;;3.80;;
63975;SDS011;50167;47.958;21.780;2023-07-29T01:16:03;8.15;;;4.17;;
63975;SDS011;50167;47.958;21.780;2023-07-29T01:18:39;5.97;;;3.50;;
63975;SDS011;50167;47.958;21.780;2023-07-29T01:21:07;11.20;;;3.80;;
63975;SDS011;50167;47.958;21.780;2023-07-29T01:23:35;6.20;;;4.10;;
63975;SDS011;50167;47.958;21.780;2023-07-29T01:26:02;4.60;;;3.53;;
63975;SDS011;50167;47.958;21.780;2023-07-29T01:28:29;9.43;;;3.55;;
63975;SDS011;50167;47.958;21.780;2023-07-29T01:31:06;6.72;;;3.95;;
63975;SDS011;50167;47.958;21.780;2023-07-29T01:33:45;5.23;;;3.90;;
63975;SDS011;50167;47.958;21.780;2023-07-29T01:36:17;6.53;;;3.47;;
63975;SDS011;50167;47.958;21.780;2023-07-29T01:38:48;10.58;;;4.92;;
63975;SDS011;50167;47.958;21.780;2023-07-29T01:41:16;4.30;;;3.70;;
63975;SDS011;50167;47.958;21.780;2023-07-29T01:43:44;6.23;;;3.33;;
63975;SDS011;50167;47.958;21.780;2023-07-29T01:46:12;9.50;;;4.13;;
63975;SDS011;50167;47.958;21.780;2023-07-29T01:48:39;9.93;;;3.85;;
63975;SDS011;50167;47.958;21.780;2023-07-29T01:51:06;4.83;;;3.50;;
63975;SDS011;50167;47.958;21.780;2023-07-29T01:53:33;9.13;;;4.03;;
63975;SDS011;50167;47.958;21.780;2023-07-29T01:55:59;6.20;;;3.57;;
63975;SDS011;50167;47.958;21.780;2023-07-29T01:58:25;4.90;;;3.58;;
63975;SDS011;50167;47.958;21.780;2023-07-29T02:00:51;4.77;;;3.20;;
63975;SDS011;50167;47.958;21.780;2023-07-29T02:03:17;5.47;;;3.83;;
63975;SDS011;50167;47.958;21.780;2023-07-29T02:05:43;5.27;;;3.77;;
63975;SDS011;50167;47.958;21.780;2023-07-29T02:08:10;8.70;;;4.25;;
63975;SDS011;50167;47.958;21.780;2023-07-29T02:10:37;4.97;;;3.80;;
63975;SDS011;50167;47.958;21.780;2023-07-29T02:13:03;7.63;;;3.67;;
63975;SDS011;50167;47.958;21.780;2023-07-29T02:15:29;7.03;;;3.57;;
63975;SDS011;50167;47.958;21.780;2023-07-29T02:17:56;7.17;;;4.23;;
63975;SDS011;50167;47.958;21.780;2023-07-29T02:20:24;8.43;;;3.67;;
63975;SDS011;50167;47.958;21.780;2023-07-29T02:22:50;4.77;;;3.23;;
63975;SDS011;50167;47.958;21.780;2023-07-29T02:25:16;5.07;;;3.17;;
63975;SDS011;50167;47.958;21.780;2023-07-29T02:27:43;8.33;;;4.50;;
63975;SDS011;50167;47.958;21.780;2023-07-29T02:30:09;5.73;;;4.00;;
63975;SDS011;50167;47.958;21.780;2023-07-29T02:32:37;5.03;;;3.27;;
63975;SDS011;50167;47.958;21.780;2023-07-29T02:35:04;5.63;;;3.30;;
63975;SDS011;50167;47.958;21.780;2023-07-29T02:37:31;5.10;;;3.27;;
63975;SDS011;50167;47.958;21.780;2023-07-29T02:40:00;7.00;;;3.87;;
63975;SDS011;50167;47.958;21.780;2023-07-29T02:42:27;7.50;;;3.90;;
63975;SDS011;50167;47.958;21.780;2023-07-29T02:44:53;6.00;;;3.50;;
63975;SDS011;50167;47.958;21.780;2023-07-29T02:47:19;10.60;;;3.47;;
63975;SDS011;50167;47.958;21.780;2023-07-29T02:49:45;5.33;;;3.43;;
63975;SDS011;50167;47.958;21.780;2023-07-29T02:52:12;5.20;;;3.80;;
63975;SDS011;50167;47.958;21.780;2023-07-29T02:54:38;3.90;;;3.47;;
63975;SDS011;50167;47.958;21.780;2023-07-29T02:57:04;5.70;;;3.87;;
63975;SDS011;50167;47.958;21.780;2023-07-29T02:59:30;3.87;;;3.17;;
63975;SDS011;50167;47.958;21.780;2023-07-29T03:01:56;6.53;;;3.70;;
63975;SDS011;50167;47.958;21.780;2023-07-29T03:04:23;5.63;;;3.57;;
63975;SDS011;50167;47.958;21.780;2023-07-29T03:06:49;6.60;;;3.13;;
63975;SDS011;50167;47.958;21.780;2023-07-29T03:09:15;7.15;;;3.25;;
63975;SDS011;50167;47.958;21.780;2023-07-29T03:11:41;5.90;;;3.90;;
63975;SDS011;50167;47.958;21.780;2023-07-29T03:14:07;5.17;;;3.35;;
63975;SDS011;50167;47.958;21.780;2023-07-29T03:16:34;9.78;;;4.20;;
63975;SDS011;50167;47.958;21.780;2023-07-29T03:19:00;8.37;;;3.63;;
63975;SDS011;50167;47.958;21.780;2023-07-29T03:21:26;10.00;;;3.60;;
63975;SDS011;50167;47.958;21.780;2023-07-29T03:23:52;5.63;;;4.27;;
63975;SDS011;50167;47.958;21.780;2023-07-29T03:26:18;6.57;;;3.60;;
63975;SDS011;50167;47.958;21.780;2023-07-29T03:28:44;9.27;;;3.63;;
63975;SDS011;50167;47.958;21.780;2023-07-29T03:31:10;3.53;;;3.23;;
63975;SDS011;50167;47.958;21.780;2023-07-29T03:33:37;7.07;;;3.73;;
63975;SDS011;50167;47.958;21.780;2023-07-29T03:36:04;8.10;;;3.90;;
63975;SDS011;50167;47.958;21.780;2023-07-29T03:38:30;5.47;;;4.23;;
63975;SDS011;50167;47.958;21.780;2023-07-29T03:40:58;5.83;;;3.47;;
63975;SDS011;50167;47.958;21.780;2023-07-29T03:43:24;3.73;;;3.30;;
63975;SDS011;50167;47.958;21.780;2023-07-29T03:45:50;7.75;;;3.65;;
63975;SDS011;50167;47.958;21.780;2023-07-29T03:48:16;9.20;;;3.60;;
63975;SDS011;50167;47.958;21.780;2023-07-29T03:50:42;4.50;;;3.00;;
63975;SDS011;50167;47.958;21.780;2023-07-29T03:53:09;8.83;;;3.72;;
63975;SDS011;50167;47.958;21.780;2023-07-29T03:55:35;6.62;;;3.15;;
63975;SDS011;50167;47.958;21.780;2023-07-29T03:58:01;7.22;;;3.98;;
63975;SDS011;50167;47.958;21.780;2023-07-29T04:00:27;9.98;;;3.72;;
63975;SDS011;50167;47.958;21.780;2023-07-29T04:02:54;10.03;;;3.55;;
63975;SDS011;50167;47.958;21.780;2023-07-29T04:05:20;4.70;;;3.33;;
63975;SDS011;50167;47.958;21.780;2023-07-29T04:07:46;12.50;;;4.03;;
63975;SDS011;50167;47.958;21.780;2023-07-29T04:10:12;5.60;;;4.20;;
63975;SDS011;50167;47.958;21.780;2023-07-29T04:12:39;9.70;;;4.67;;
63975;SDS011;50167;47.958;21.780;2023-07-29T04:15:06;4.80;;;3.75;;
63975;SDS011;50167;47.958;21.780;2023-07-29T04:17:33;10.55;;;4.08;;
63975;SDS011;50167;47.958;21.780;2023-07-29T04:19:59;6.15;;;3.50;;
63975;SDS011;50167;47.958;21.780;2023-07-29T04:22:25;6.95;;;3.67;;
63975;SDS011;50167;47.958;21.780;2023-07-29T04:24:51;13.62;;;4.72;;
63975;SDS011;50167;47.958;21.780;2023-07-29T04:27:17;7.95;;;3.27;;
63975;SDS011;50167;47.958;21.780;2023-07-29T04:29:44;10.03;;;3.90;;
63975;SDS011;50167;47.958;21.780;2023-07-29T04:32:10;5.75;;;3.80;;
63975;SDS011;50167;47.958;21.780;2023-07-29T04:34:36;7.78;;;3.62;;
63975;SDS011;50167;47.958;21.780;2023-07-29T04:37:02;6.62;;;3.85;;
63975;SDS011;50167;47.958;21.780;2023-07-29T04:39:28;4.83;;;3.27;;
63975;SDS011;50167;47.958;21.780;2023-07-29T04:41:54;9.50;;;4.62;;
63975;SDS011;50167;47.958;21.780;2023-07-29T04:44:22;8.65;;;3.37;;
63975;SDS011;50167;47.958;21.780;2023-07-29T04:46:48;10.43;;;4.42;;
63975;SDS011;50167;47.958;21.780;2023-07-29T04:49:14;7.08;;;5.03;;
63975;SDS011;50167;47.958;21.780;2023-07-29T04:51:40;7.72;;;4.12;;
63975;SDS011;50167;47.958;21.780;2023-07-29T04:54:06;12.10;;;5.20;;
63975;SDS011;50167;47.958;21.780;2023-07-29T04:56:33;8.95;;;4.67;;
63975;SDS011;50167;47.958;21.780;2023-07-29T04:58:59;9.68;;;4.37;;
63975;SDS011;50167;47.958;21.780;2023-07-29T05:01:25;7.20;;;4.10;;
63975;SDS011;50167;47.958;21.780;2023-07-29T05:03:51;4.72;;;4.22;;
63975;SDS011;50167;47.958;21.780;2023-07-29T05:06:17;8.18;;;4.65;;
63975;SDS011;50167;47.958;21.780;2023-07-29T05:08:43;13.35;;;4.10;;
63975;SDS011;50167;47.958;21.780;2023-07-29T05:11:09;8.65;;;4.28;;
63975;SDS011;50167;47.958;21.780;2023-07-29T05:13:35;5.60;;;4.85;;
63975;SDS011;50167;47.958;21.780;2023-07-29T05:16:03;6.47;;;4.78;;
63975;SDS011;50167;47.958;21.780;2023-07-29T05:18:29;5.97;;;5.17;;
63975;SDS011;50167;47.958;21.780;2023-07-29T05:20:55;25.45;;;6.33;;
63975;SDS011;50167;47.958;21.780;2023-07-29T05:23:21;8.18;;;4.70;;
63975;SDS011;50167;47.958;21.780;2023-07-29T05:25:47;5.70;;;4.00;;
63975;SDS011;50167;47.958;21.780;2023-07-29T05:28:14;9.23;;;5.35;;
63975;SDS011;50167;47.958;21.780;2023-07-29T05:30:40;6.72;;;3.83;;
63975;SDS011;50167;47.958;21.780;2023-07-29T05:33:06;7.08;;;4.50;;
63975;SDS011;50167;47.958;21.780;2023-07-29T05:35:35;5.37;;;4.10;;
63975;SDS011;50167;47.958;21.780;2023-07-29T05:38:02;6.83;;;4.47;;
63975;SDS011;50167;47.958;21.780;2023-07-29T05:40:30;7.05;;;3.65;;
63975;SDS011;50167;47.958;21.780;2023-07-29T05:42:56;5.95;;;3.60;;
63975;SDS011;50167;47.958;21.780;2023-07-29T05:45:22;8.13;;;5.58;;
63975;SDS011;50167;47.958;21.780;2023-07-29T05:47:48;9.78;;;3.92;;
63975;SDS011;50167;47.958;21.780;2023-07-29T05:50:15;3.80;;;3.30;;
63975;SDS011;50167;47.958;21.780;2023-07-29T05:52:41;5.08;;;3.58;;
63975;SDS011;50167;47.958;21.780;2023-07-29T05:55:07;5.17;;;3.37;;
63975;SDS011;50167;47.958;21.780;2023-07-29T05:57:33;7.08;;;4.17;;
63975;SDS011;50167;47.958;21.780;2023-07-29T06:00:00;5.85;;;3.87;;
63975;SDS011;50167;47.958;21.780;2023-07-29T06:02:26;7.72;;;3.58;;
63975;SDS011;50167;47.958;21.780;2023-07-29T06:04:52;5.90;;;4.33;;
63975;SDS011;50167;47.958;21.780;2023-07-29T06:07:18;6.12;;;4.03;;
63975;SDS011;50167;47.958;21.780;2023-07-29T06:09:44;7.00;;;3.17;;
63975;SDS011;50167;47.958;21.780;2023-07-29T06:12:11;4.83;;;3.52;;
63975;SDS011;50167;47.958;21.780;2023-07-29T06:14:38;6.72;;;4.28;;
63975;SDS011;50167;47.958;21.780;2023-07-29T06:17:06;8.35;;;3.58;;
63975;SDS011;50167;47.958;21.780;2023-07-29T06:19:32;5.15;;;3.65;;
63975;SDS011;50167;47.958;21.780;2023-07-29T06:21:58;11.12;;;3.55;;
63975;SDS011;50167;47.958;21.780;2023-07-29T06:24:26;5.00;;;3.37;;
63975;SDS011;50167;47.958;21.780;2023-07-29T06:26:52;8.15;;;4.50;;
63975;SDS011;50167;47.958;21.780;2023-07-29T06:29:19;9.45;;;3.70;;
63975;SDS011;50167;47.958;21.780;2023-07-29T06:31:45;5.37;;;4.15;;
63975;SDS011;50167;47.958;21.780;2023-07-29T06:34:11;7.62;;;3.90;;
63975;SDS011;50167;47.958;21.780;2023-07-29T06:36:40;6.45;;;3.95;;
63975;SDS011;50167;47.958;21.780;2023-07-29T06:39:06;10.45;;;3.92;;
63975;SDS011;50167;47.958;21.780;2023-07-29T06:41:32;6.40;;;3.55;;
63975;SDS011;50167;47.958;21.780;2023-07-29T06:43:59;4.53;;;3.83;;
63975;SDS011;50167;47.958;21.780;2023-07-29T06:46:25;5.25;;;3.50;;
63975;SDS011;50167;47.958;21.780;2023-07-29T06:48:51;8.93;;;3.98;;
63975;SDS011;50167;47.958;21.780;2023-07-29T06:51:18;7.05;;;3.60;;
63975;SDS011;50167;47.958;21.780;2023-07-29T06:53:44;7.65;;;4.75;;
63975;SDS011;50167;47.958;21.780;2023-07-29T06:56:11;13.05;;;5.08;;
63975;SDS011;50167;47.958;21.780;2023-07-29T06:58:37;5.70;;;3.85;;
63975;SDS011;50167;47.958;21.780;2023-07-29T07:01:03;8.43;;;3.65;;
63975;SDS011;50167;47.958;21.780;2023-07-29T07:03:29;6.15;;;4.37;;
63975;SDS011;50167;47.958;21.780;2023-07-29T07:05:55;6.75;;;3.87;;
63975;SDS011;50167;47.958;21.780;2023-07-29T07:08:21;4.55;;;3.87;;
63975;SDS011;50167;47.958;21.780;2023-07-29T07:10:47;11.08;;;4.17;;
63975;SDS011;50167;47.958;21.780;2023-07-29T07:13:23;7.47;;;4.15;;
63975;SDS011;50167;47.958;21.780;2023-07-29T07:15:49;3.60;;;3.22;;
63975;SDS011;50167;47.958;21.780;2023-07-29T07:18:15;6.78;;;3.50;;
63975;SDS011;50167;47.958;21.780;2023-07-29T07:20:41;7.03;;;2.90;;
63975;SDS011;50167;47.958;21.780;2023-07-29T07:23:07;6.67;;;4.30;;
63975;SDS011;50167;47.958;21.780;2023-07-29T07:25:41;6.28;;;3.05;;
63975;SDS011;50167;47.958;21.780;2023-07-29T07:28:11;5.50;;;3.37;;
63975;SDS011;50167;47.958;21.780;2023-07-29T07:37:45;9.63;;;3.65;;
63975;SDS011;50167;47.958;21.780;2023-07-29T07:40:11;5.17;;;3.12;;
63975;SDS011;50167;47.958;21.780;2023-07-29T07:42:37;6.85;;;3.50;;
63975;SDS011;50167;47.958;21.780;2023-07-29T07:45:04;5.45;;;3.60;;
63975;SDS011;50167;47.958;21.780;2023-07-29T07:47:31;8.18;;;3.80;;
63975;SDS011;50167;47.958;21.780;2023-07-29T07:49:57;5.42;;;3.42;;
63975;SDS011;50167;47.958;21.780;2023-07-29T07:52:23;6.80;;;3.65;;
63975;SDS011;50167;47.958;21.780;2023-07-29T07:54:54;9.80;;;3.58;;
63975;SDS011;50167;47.958;21.780;2023-07-29T07:57:19;5.25;;;4.00;;
63975;SDS011;50167;47.958;21.780;2023-07-29T07:59:47;5.65;;;3.60;;
63975;SDS011;50167;47.958;21.780;2023-07-29T08:02:13;7.72;;;3.15;;
63975;SDS011;50167;47.958;21.780;2023-07-29T08:04:39;6.87;;;3.45;;
63975;SDS011;50167;47.958;21.780;2023-07-29T08:07:18;4.60;;;3.10;;
63975;SDS011;50167;47.958;21.780;2023-07-29T08:09:44;6.17;;;3.30;;
63975;SDS011;50167;47.958;21.780;2023-07-29T08:12:10;5.78;;;3.65;;
63975;SDS011;50167;47.958;21.780;2023-07-29T08:14:36;5.15;;;3.00;;
63975;SDS011;50167;47.958;21.780;2023-07-29T08:17:02;4.22;;;3.00;;
63975;SDS011;50167;47.958;21.780;2023-07-29T08:19:28;4.87;;;3.12;;
63975;SDS011;50167;47.958;21.780;2023-07-29T08:25:54;4.83;;;3.15;;
63975;SDS011;50167;47.958;21.780;2023-07-29T08:28:24;4.55;;;2.90;;
63975;SDS011;50167;47.958;21.780;2023-07-29T08:30:50;9.23;;;3.50;;
63975;SDS011;50167;47.958;21.780;2023-07-29T08:36:40;7.35;;;3.17;;
63975;SDS011;50167;47.958;21.780;2023-07-29T08:39:06;4.47;;;3.00;;
63975;SDS011;50167;47.958;21.780;2023-07-29T08:41:35;2.85;;;2.40;;
63975;SDS011;50167;47.958;21.780;2023-07-29T08:48:42;10.28;;;3.20;;
63975;SDS011;50167;47.958;21.780;2023-07-29T08:51:09;7.30;;;3.08;;
63975;SDS011;50167;47.958;21.780;2023-07-29T08:53:37;5.65;;;3.00;;
63975;SDS011;50167;47.958;21.780;2023-07-29T08:56:14;4.17;;;3.47;;
63975;SDS011;50167;47.958;21.780;2023-07-29T08:58:41;3.25;;;2.37;;
63975;SDS011;50167;47.958;21.780;2023-07-29T09:01:08;4.92;;;3.22;;
63975;SDS011;50167;47.958;21.780;2023-07-29T09:03:36;6.10;;;3.12;;
63975;SDS011;50167;47.958;21.780;2023-07-29T09:06:02;8.18;;;3.33;;
63975;SDS011;50167;47.958;21.780;2023-07-29T09:08:29;7.33;;;3.00;;
63975;SDS011;50167;47.958;21.780;2023-07-29T09:10:55;4.10;;;3.15;;
63975;SDS011;50167;47.958;21.780;2023-07-29T09:13:21;5.20;;;2.92;;
63975;SDS011;50167;47.958;21.780;2023-07-29T09:22:55;5.87;;;3.25;;
63975;SDS011;50167;47.958;21.780;2023-07-29T09:25:29;5.67;;;3.40;;
63975;SDS011;50167;47.958;21.780;2023-07-29T09:27:59;4.78;;;2.92;;
63975;SDS011;50167;47.958;21.780;2023-07-29T09:30:26;4.22;;;3.33;;
63975;SDS011;50167;47.958;21.780;2023-07-29T09:32:56;5.40;;;3.17;;
63975;SDS011;50167;47.958;21.780;2023-07-29T09:35:27;14.03;;;4.10;;
63975;SDS011;50167;47.958;21.780;2023-07-29T09:37:54;5.10;;;3.65;;
63975;SDS011;50167;47.958;21.780;2023-07-29T09:40:20;10.98;;;3.10;;
63975;SDS011;50167;47.958;21.780;2023-07-29T09:42:49;5.50;;;3.02;;
63975;SDS011;50167;47.958;21.780;2023-07-29T09:45:21;4.95;;;3.00;;
63975;SDS011;50167;47.958;21.780;2023-07-29T09:47:52;5.33;;;3.65;;
63975;SDS011;50167;47.958;21.780;2023-07-29T09:50:25;3.67;;;3.33;;
63975;SDS011;50167;47.958;21.780;2023-07-29T09:52:53;5.85;;;3.45;;
63975;SDS011;50167;47.958;21.780;2023-07-29T09:55:21;5.47;;;3.60;;
63975;SDS011;50167;47.958;21.780;2023-07-29T09:58:10;8.00;;;3.40;;
63975;SDS011;50167;47.958;21.780;2023-07-29T10:00:28;8.90;;;3.00;;
63975;SDS011;50167;47.958;21.780;2023-07-29T10:02:57;6.95;;;2.80;;
63975;SDS011;50167;47.958;21.780;2023-07-29T10:05:27;6.37;;;3.40;;
63975;SDS011;50167;47.958;21.780;2023-07-29T10:07:55;4.67;;;3.65;;
63975;SDS011;50167;47.958;21.780;2023-07-29T10:14:28;6.35;;;3.00;;
63975;SDS011;50167;47.958;21.780;2023-07-29T10:16:57;5.62;;;3.90;;
63975;SDS011;50167;47.958;21.780;2023-07-29T10:19:24;4.72;;;3.45;;
63975;SDS011;50167;47.958;21.780;2023-07-29T10:21:52;7.08;;;3.33;;
63975;SDS011;50167;47.958;21.780;2023-07-29T10:24:22;6.07;;;2.63;;
63975;SDS011;50167;47.958;21.780;2023-07-29T10:26:56;4.95;;;3.67;;
63975;SDS011;50167;47.958;21.780;2023-07-29T10:29:36;4.15;;;3.35;;
63975;SDS011;50167;47.958;21.780;2023-07-29T10:32:02;7.65;;;3.10;;
63975;SDS011;50167;47.958;21.780;2023-07-29T10:41:06;5.33;;;3.17;;
63975;SDS011;50167;47.958;21.780;2023-07-29T10:43:33;3.85;;;3.37;;
63975;SDS011;50167;47.958;21.780;2023-07-29T10:46:16;8.45;;;3.40;;
63975;SDS011;50167;47.958;21.780;2023-07-29T10:54:10;4.08;;;2.98;;
63975;SDS011;50167;47.958;21.780;2023-07-29T10:56:40;12.80;;;3.17;;
63975;SDS011;50167;47.958;21.780;2023-07-29T11:04:26;5.10;;;3.55;;
63975;SDS011;50167;47.958;21.780;2023-07-29T11:09:41;5.15;;;3.35;;
63975;SDS011;50167;47.958;21.780;2023-07-29T11:12:36;13.70;;;3.22;;
63975;SDS011;50167;47.958;21.780;2023-07-29T11:17:47;6.85;;;4.03;;
63975;SDS011;50167;47.958;21.780;2023-07-29T11:20:23;8.50;;;3.05;;
63975;SDS011;50167;47.958;21.780;2023-07-29T11:22:52;4.25;;;2.85;;
63975;SDS011;50167;47.958;21.780;2023-07-29T11:25:20;3.30;;;2.95;;
63975;SDS011;50167;47.958;21.780;2023-07-29T11:27:52;7.25;;;3.10;;
63975;SDS011;50167;47.958;21.780;2023-07-29T11:30:23;6.70;;;2.65;;
63975;SDS011;50167;47.958;21.780;2023-07-29T11:32:51;3.70;;;2.25;;
63975;SDS011;50167;47.958;21.780;2023-07-29T11:35:20;12.73;;;2.50;;
63975;SDS011;50167;47.958;21.780;2023-07-29T12:01:35;5.70;;;2.85;;
63975;SDS011;50167;47.958;21.780;2023-07-29T12:04:02;3.15;;;2.50;;
63975;SDS011;50167;47.958;21.780;2023-07-29T12:06:28;8.13;;;2.92;;
63975;SDS011;50167;47.958;21.780;2023-07-29T12:08:56;3.30;;;3.00;;
63975;SDS011;50167;47.958;21.780;2023-07-29T12:11:23;7.70;;;2.95;;
63975;SDS011;50167;47.958;21.780;2023-07-29T12:13:50;5.45;;;3.25;;
63975;SDS011;50167;47.958;21.780;2023-07-29T12:18:45;5.47;;;2.62;;
63975;SDS011;50167;47.958;21.780;2023-07-29T12:21:13;4.40;;;3.30;;
63975;SDS011;50167;47.958;21.780;2023-07-29T12:23:40;4.40;;;3.33;;
63975;SDS011;50167;47.958;21.780;2023-07-29T12:26:06;7.05;;;2.77;;
63975;SDS011;50167;47.958;21.780;2023-07-29T12:28:33;4.65;;;2.67;;
63975;SDS011;50167;47.958;21.780;2023-07-29T12:30:59;3.35;;;2.80;;
63975;SDS011;50167;47.958;21.780;2023-07-29T12:33:29;4.30;;;3.22;;
63975;SDS011;50167;47.958;21.780;2023-07-29T12:36:00;4.67;;;3.12;;
63975;SDS011;50167;47.958;21.780;2023-07-29T12:38:28;4.28;;;3.33;;
63975;SDS011;50167;47.958;21.780;2023-07-29T12:40:55;5.17;;;2.95;;
63975;SDS011;50167;47.958;21.780;2023-07-29T12:43:22;4.78;;;3.35;;
63975;SDS011;50167;47.958;21.780;2023-07-29T12:45:51;6.70;;;3.27;;
63975;SDS011;50167;47.958;21.780;2023-07-29T12:48:18;3.77;;;2.47;;
63975;SDS011;50167;47.958;21.780;2023-07-29T12:50:44;5.37;;;3.20;;
63975;SDS011;50167;47.958;21.780;2023-07-29T12:53:10;2.80;;;2.58;;
63975;SDS011;50167;47.958;21.780;2023-07-29T12:55:36;4.50;;;2.65;;
63975;SDS011;50167;47.958;21.780;2023-07-29T12:58:03;4.65;;;2.60;;
63975;SDS011;50167;47.958;21.780;2023-07-29T13:00:30;5.75;;;2.92;;
63975;SDS011;50167;47.958;21.780;2023-07-29T13:02:56;4.87;;;2.58;;
63975;SDS011;50167;47.958;21.780;2023-07-29T13:05:22;3.20;;;2.90;;
63975;SDS011;50167;47.958;21.780;2023-07-29T13:07:49;5.30;;;2.85;;
63975;SDS011;50167;47.958;21.780;2023-07-29T13:10:21;9.28;;;2.95;;
63975;SDS011;50167;47.958;21.780;2023-07-29T13:12:47;10.13;;;3.05;;
63975;SDS011;50167;47.958;21.780;2023-07-29T13:15:14;8.73;;;3.00;;
63975;SDS011;50167;47.958;21.780;2023-07-29T13:17:40;2.30;;;2.08;;
63975;SDS011;50167;47.958;21.780;2023-07-29T13:20:07;3.92;;;2.50;;
63975;SDS011;50167;47.958;21.780;2023-07-29T13:22:34;9.23;;;2.37;;
63975;SDS011;50167;47.958;21.780;2023-07-29T13:25:00;5.30;;;2.00;;
63975;SDS011;50167;47.958;21.780;2023-07-29T13:27:27;5.67;;;1.98;;
63975;SDS011;50167;47.958;21.780;2023-07-29T13:29:54;2.30;;;2.10;;
63975;SDS011;50167;47.958;21.780;2023-07-29T13:32:20;4.50;;;2.15;;
63975;SDS011;50167;47.958;21.780;2023-07-29T13:34:46;2.33;;;1.85;;
63975;SDS011;50167;47.958;21.780;2023-07-29T13:37:13;1.95;;;1.72;;
63975;SDS011;50167;47.958;21.780;2023-07-29T13:39:39;3.77;;;1.70;;
63975;SDS011;50167;47.958;21.780;2023-07-29T13:42:05;4.22;;;2.20;;
63975;SDS011;50167;47.958;21.780;2023-07-29T13:44:32;2.25;;;2.05;;
63975;SDS011;50167;47.958;21.780;2023-07-29T13:46:58;2.25;;;2.05;;
63975;SDS011;50167;47.958;21.780;2023-07-29T13:49:24;6.30;;;2.42;;
63975;SDS011;50167;47.958;21.780;2023-07-29T13:51:57;3.30;;;1.82;;
63975;SDS011;50167;47.958;21.780;2023-07-29T13:54:23;2.33;;;2.12;;
63975;SDS011;50167;47.958;21.780;2023-07-29T13:56:49;3.47;;;1.98;;
63975;SDS011;50167;47.958;21.780;2023-07-29T13:59:15;3.02;;;1.75;;
63975;SDS011;50167;47.958;21.780;2023-07-29T14:01:42;2.08;;;1.65;;
63975;SDS011;50167;47.958;21.780;2023-07-29T14:04:08;3.10;;;1.90;;
63975;SDS011;50167;47.958;21.780;2023-07-29T14:06:34;2.35;;;2.15;;
63975;SDS011;50167;47.958;21.780;2023-07-29T14:09:00;5.58;;;2.22;;
63975;SDS011;50167;47.958;21.780;2023-07-29T14:11:27;7.53;;;2.70;;
63975;SDS011;50167;47.958;21.780;2023-07-29T14:13:53;2.15;;;1.95;;
63975;SDS011;50167;47.958;21.780;2023-07-29T14:16:19;2.35;;;2.08;;
63975;SDS011;50167;47.958;21.780;2023-07-29T14:18:46;5.08;;;2.12;;
63975;SDS011;50167;47.958;21.780;2023-07-29T14:21:12;1.95;;;1.60;;
63975;SDS011;50167;47.958;21.780;2023-07-29T14:23:38;3.62;;;2.77;;
63975;SDS011;50167;47.958;21.780;2023-07-29T14:26:04;3.60;;;1.90;;
63975;SDS011;50167;47.958;21.780;2023-07-29T14:28:31;2.35;;;2.15;;
63975;SDS011;50167;47.958;21.780;2023-07-29T14:30:57;4.70;;;1.87;;
63975;SDS011;50167;47.958;21.780;2023-07-29T14:33:23;4.25;;;2.15;;
63975;SDS011;50167;47.958;21.780;2023-07-29T14:35:50;3.98;;;1.98;;
63975;SDS011;50167;47.958;21.780;2023-07-29T14:38:16;6.42;;;2.00;;
63975;SDS011;50167;47.958;21.780;2023-07-29T14:40:42;3.83;;;2.42;;
63975;SDS011;50167;47.958;21.780;2023-07-29T14:43:08;3.98;;;2.67;;
63975;SDS011;50167;47.958;21.780;2023-07-29T14:45:34;3.40;;;2.55;;
63975;SDS011;50167;47.958;21.780;2023-07-29T14:48:00;4.25;;;2.55;;
63975;SDS011;50167;47.958;21.780;2023-07-29T14:50:26;4.08;;;2.45;;
63975;SDS011;50167;47.958;21.780;2023-07-29T14:52:53;6.22;;;2.85;;
63975;SDS011;50167;47.958;21.780;2023-07-29T14:55:19;4.37;;;2.60;;
63975;SDS011;50167;47.958;21.780;2023-07-29T14:57:46;7.85;;;2.20;;
63975;SDS011;50167;47.958;21.780;2023-07-29T15:00:12;4.53;;;2.42;;
63975;SDS011;50167;47.958;21.780;2023-07-29T15:05:50;8.45;;;2.17;;
63975;SDS011;50167;47.958;21.780;2023-07-29T15:08:17;2.62;;;1.90;;
63975;SDS011;50167;47.958;21.780;2023-07-29T15:10:49;3.33;;;2.35;;
63975;SDS011;50167;47.958;21.780;2023-07-29T15:13:15;3.12;;;1.70;;
63975;SDS011;50167;47.958;21.780;2023-07-29T15:15:41;3.52;;;2.30;;
63975;SDS011;50167;47.958;21.780;2023-07-29T15:18:08;4.35;;;2.10;;
63975;SDS011;50167;47.958;21.780;2023-07-29T15:20:34;4.33;;;2.12;;
63975;SDS011;50167;47.958;21.780;2023-07-29T15:23:00;3.02;;;2.42;;
63975;SDS011;50167;47.958;21.780;2023-07-29T15:25:26;4.37;;;2.50;;
63975;SDS011;50167;47.958;21.780;2023-07-29T15:27:53;5.30;;;1.90;;
63975;SDS011;50167;47.958;21.780;2023-07-29T15:30:19;7.83;;;2.17;;
63975;SDS011;50167;47.958;21.780;2023-07-29T15:32:45;3.65;;;2.20;;
63975;SDS011;50167;47.958;21.780;2023-07-29T15:35:12;4.12;;;2.47;;
63975;SDS011;50167;47.958;21.780;2023-07-29T15:37:38;6.45;;;2.35;;
63975;SDS011;50167;47.958;21.780;2023-07-29T15:40:05;6.90;;;2.30;;
63975;SDS011;50167;47.958;21.780;2023-07-29T15:42:33;5.93;;;3.17;;
63975;SDS011;50167;47.958;21.780;2023-07-29T15:45:00;5.25;;;2.90;;
63975;SDS011;50167;47.958;21.780;2023-07-29T15:47:26;5.45;;;2.58;;
63975;SDS011;50167;47.958;21.780;2023-07-29T15:49:52;3.92;;;2.62;;
63975;SDS011;50167;47.958;21.780;2023-07-29T15:52:18;4.80;;;2.15;;
63975;SDS011;50167;47.958;21.780;2023-07-29T15:54:44;3.37;;;2.92;;
63975;SDS011;50167;47.958;21.780;2023-07-29T15:57:10;3.22;;;2.90;;
63975;SDS011;50167;47.958;21.780;2023-07-29T15:59:37;7.22;;;5.05;;
63975;SDS011;50167;47.958;21.780;2023-07-29T16:02:04;4.12;;;3.17;;